Terminal Aerodrome Forecast
Issued by NWS

Home | Current Version | Previous Version | Text Only | Print | Product List | Glossary On
Versions: 1 2 3 4 5 6 7 8 9 10 11 12 13 14
832
FTPA31 PHFO 202328
TAFHNY
TAF
PHNY 202328Z 2100/2124 05018G22KT P6SM SCT025
     FM210500 05012G18KT P6SM SCT025
     FM211000 05011KT P6SM SCT025
     FM211900 05014G22KT P6SM SCT025
     FM212200 05018G28KT P6SM SCT025=

USA.gov is the U.S. government's official web portal to all federal, state and local government web resources and services.